sensor_id;sensor_type;location;lat;lon;timestamp;temperature;humidity
59067;DHT22;44854;50.838;4.438;2023-05-10T04:02:52;13.50;99.90
59067;DHT22;44854;50.838;4.438;2023-05-10T04:05:17;13.50;99.90
59067;DHT22;44854;50.838;4.438;2023-05-10T04:07:43;13.60;99.90
59067;DHT22;44854;50.838;4.438;2023-05-10T04:10:09;13.70;99.90
59067;DHT22;44854;50.838;4.438;2023-05-10T04:12:35;13.80;99.90
59067;DHT22;44854;50.838;4.438;2023-05-10T04:15:01;13.70;99.90
59067;DHT22;44854;50.838;4.438;2023-05-10T04:17:26;13.80;99.90
59067;DHT22;44854;50.838;4.438;2023-05-10T04:19:52;13.80;99.90
59067;DHT22;44854;50.838;4.438;2023-05-10T04:22:20;13.80;99.90
59067;DHT22;44854;50.838;4.438;2023-05-10T04:24:46;13.80;99.90
59067;DHT22;44854;50.838;4.438;2023-05-10T04:27:11;13.80;99.90
59067;DHT22;44854;50.838;4.438;2023-05-10T04:29:37;13.70;99.90
59067;DHT22;44854;50.838;4.438;2023-05-10T04:32:03;13.70;99.90
59067;DHT22;44854;50.838;4.438;2023-05-10T04:34:29;13.70;99.90
59067;DHT22;44854;50.838;4.438;2023-05-10T04:36:54;13.80;99.90
59067;DHT22;44854;50.838;4.438;2023-05-10T04:39:20;13.70;99.90
59067;DHT22;44854;50.838;4.438;2023-05-10T04:41:46;13.70;99.90
59067;DHT22;44854;50.838;4.438;2023-05-10T04:44:11;13.80;99.90
59067;DHT22;44854;50.838;4.438;2023-05-10T04:46:37;13.80;99.90
59067;DHT22;44854;50.838;4.438;2023-05-10T04:49:02;13.80;99.90
59067;DHT22;44854;50.838;4.438;2023-05-10T04:51:28;13.80;99.90
59067;DHT22;44854;50.838;4.438;2023-05-10T04:53:53;14.00;99.90
59067;DHT22;44854;50.838;4.438;2023-05-10T04:56:19;14.00;99.90
59067;DHT22;44854;50.838;4.438;2023-05-10T04:58:44;13.90;99.90
59067;DHT22;44854;50.838;4.438;2023-05-10T05:01:11;14.00;99.90
59067;DHT22;44854;50.838;4.438;2023-05-10T05:03:36;13.90;99.90
59067;DHT22;44854;50.838;4.438;2023-05-10T05:06:02;13.80;99.90
59067;DHT22;44854;50.838;4.438;2023-05-10T05:08:28;13.80;99.90
59067;DHT22;44854;50.838;4.438;2023-05-10T05:10:53;13.80;99.90
59067;DHT22;44854;50.838;4.438;2023-05-10T05:13:19;13.80;99.90
59067;DHT22;44854;50.838;4.438;2023-05-10T05:15:45;13.70;99.90
59067;DHT22;44854;50.838;4.438;2023-05-10T05:18:10;13.70;99.90
59067;DHT22;44854;50.838;4.438;2023-05-10T05:20:36;13.70;99.90
59067;DHT22;44854;50.838;4.438;2023-05-10T05:23:01;13.70;99.90
59067;DHT22;44854;50.838;4.438;2023-05-10T05:25:27;13.70;99.90
59067;DHT22;44854;50.838;4.438;2023-05-10T05:27:52;13.80;99.90
59067;DHT22;44854;50.838;4.438;2023-05-10T05:30:18;13.80;99.90
59067;DHT22;44854;50.838;4.438;2023-05-10T05:32:44;13.90;99.90
59067;DHT22;44854;50.838;4.438;2023-05-10T05:35:09;13.90;99.90
59067;DHT22;44854;50.838;4.438;2023-05-10T05:37:36;13.80;99.90
59067;DHT22;44854;50.838;4.438;2023-05-10T05:40:02;13.80;99.90
59067;DHT22;44854;50.838;4.438;2023-05-10T05:42:28;13.70;99.90
59067;DHT22;44854;50.838;4.438;2023-05-10T05:44:54;13.60;99.90
59067;DHT22;44854;50.838;4.438;2023-05-10T05:47:19;13.60;99.90
59067;DHT22;44854;50.838;4.438;2023-05-10T05:49:45;13.50;99.90
59067;DHT22;44854;50.838;4.438;2023-05-10T05:52:11;13.40;99.90
59067;DHT22;44854;50.838;4.438;2023-05-10T05:54:36;13.50;99.90
59067;DHT22;44854;50.838;4.438;2023-05-10T05:57:02;13.60;99.90
59067;DHT22;44854;50.838;4.438;2023-05-10T05:59:28;13.70;99.90
59067;DHT22;44854;50.838;4.438;2023-05-10T06:01:53;13.80;99.90
59067;DHT22;44854;50.838;4.438;2023-05-10T06:04:19;13.70;99.90
59067;DHT22;44854;50.838;4.438;2023-05-10T06:06:45;13.70;99.90
59067;DHT22;44854;50.838;4.438;2023-05-10T06:09:10;13.70;99.90
59067;DHT22;44854;50.838;4.438;2023-05-10T06:11:36;13.80;99.90
59067;DHT22;44854;50.838;4.438;2023-05-10T06:14:02;13.80;99.90
59067;DHT22;44854;50.838;4.438;2023-05-10T06:16:29;13.60;99.90
59067;DHT22;44854;50.838;4.438;2023-05-10T06:18:55;13.70;99.90
59067;DHT22;44854;50.838;4.438;2023-05-10T06:21:20;13.70;99.90
59067;DHT22;44854;50.838;4.438;2023-05-10T06:23:46;13.70;99.90
59067;DHT22;44854;50.838;4.438;2023-05-10T06:26:12;13.70;99.90
59067;DHT22;44854;50.838;4.438;2023-05-10T06:28:39;13.70;99.90
59067;DHT22;44854;50.838;4.438;2023-05-10T06:31:04;13.70;99.90
59067;DHT22;44854;50.838;4.438;2023-05-10T06:33:30;13.70;99.90
59067;DHT22;44854;50.838;4.438;2023-05-10T06:35:56;13.60;99.90
59067;DHT22;44854;50.838;4.438;2023-05-10T06:38:22;13.40;99.90
59067;DHT22;44854;50.838;4.438;2023-05-10T06:40:48;13.40;99.90
59067;DHT22;44854;50.838;4.438;2023-05-10T06:43:13;13.40;99.90
59067;DHT22;44854;50.838;4.438;2023-05-10T06:45:39;13.30;99.90
59067;DHT22;44854;50.838;4.438;2023-05-10T06:48:04;13.40;99.90
59067;DHT22;44854;50.838;4.438;2023-05-10T06:50:30;13.50;99.90
59067;DHT22;44854;50.838;4.438;2023-05-10T06:52:55;13.60;99.90
59067;DHT22;44854;50.838;4.438;2023-05-10T06:55:21;13.70;99.90
59067;DHT22;44854;50.838;4.438;2023-05-10T06:57:46;13.70;99.90
59067;DHT22;44854;50.838;4.438;2023-05-10T07:00:13;13.60;99.90
59067;DHT22;44854;50.838;4.438;2023-05-10T07:02:39;13.50;99.90
59067;DHT22;44854;50.838;4.438;2023-05-10T07:05:04;13.60;99.90
59067;DHT22;44854;50.838;4.438;2023-05-10T07:07:30;13.40;99.90
59067;DHT22;44854;50.838;4.438;2023-05-10T07:09:56;13.50;99.90
59067;DHT22;44854;50.838;4.438;2023-05-10T07:12:23;13.60;99.90
59067;DHT22;44854;50.838;4.438;2023-05-10T07:14:48;13.70;99.90
59067;DHT22;44854;50.838;4.438;2023-05-10T07:17:14;13.70;99.90
59067;DHT22;44854;50.838;4.438;2023-05-10T07:19:39;13.90;99.90
59067;DHT22;44854;50.838;4.438;2023-05-10T07:22:05;13.80;99.90
59067;DHT22;44854;50.838;4.438;2023-05-10T07:26:57;13.70;99.90
59067;DHT22;44854;50.838;4.438;2023-05-10T07:29:22;13.60;99.90
59067;DHT22;44854;50.838;4.438;2023-05-10T07:31:48;13.50;99.90
59067;DHT22;44854;50.838;4.438;2023-05-10T07:34:14;13.30;99.90
59067;DHT22;44854;50.838;4.438;2023-05-10T07:36:39;13.40;99.90
59067;DHT22;44854;50.838;4.438;2023-05-10T07:39:05;13.50;99.90
59067;DHT22;44854;50.838;4.438;2023-05-10T07:41:30;13.50;99.90
59067;DHT22;44854;50.838;4.438;2023-05-10T07:43:56;13.30;99.90
59067;DHT22;44854;50.838;4.438;2023-05-10T07:46:21;13.20;99.90
59067;DHT22;44854;50.838;4.438;2023-05-10T07:48:47;13.10;99.90
59067;DHT22;44854;50.838;4.438;2023-05-10T07:51:12;13.20;99.90
59067;DHT22;44854;50.838;4.438;2023-05-10T07:53:38;13.30;99.90
59067;DHT22;44854;50.838;4.438;2023-05-10T07:56:19;13.30;99.90
59067;DHT22;44854;50.838;4.438;2023-05-10T07:58:45;13.20;99.90
59067;DHT22;44854;50.838;4.438;2023-05-10T08:01:10;13.20;99.90
59067;DHT22;44854;50.838;4.438;2023-05-10T08:03:36;13.10;99.90
59067;DHT22;44854;50.838;4.438;2023-05-10T08:06:01;13.10;99.90
59067;DHT22;44854;50.838;4.438;2023-05-10T08:08:27;13.20;99.90
59067;DHT22;44854;50.838;4.438;2023-05-10T08:10:53;13.30;99.90
59067;DHT22;44854;50.838;4.438;2023-05-10T08:13:18;13.50;99.90
59067;DHT22;44854;50.838;4.438;2023-05-10T08:15:44;13.50;99.90
59067;DHT22;44854;50.838;4.438;2023-05-10T08:18:09;13.50;99.90
59067;DHT22;44854;50.838;4.438;2023-05-10T08:20:35;13.60;99.90
59067;DHT22;44854;50.838;4.438;2023-05-10T08:23:00;13.70;99.90
59067;DHT22;44854;50.838;4.438;2023-05-10T08:25:26;13.80;99.90
59067;DHT22;44854;50.838;4.438;2023-05-10T08:27:51;13.90;99.90
59067;DHT22;44854;50.838;4.438;2023-05-10T08:30:17;14.10;99.90
59067;DHT22;44854;50.838;4.438;2023-05-10T08:32:42;14.10;99.90
59067;DHT22;44854;50.838;4.438;2023-05-10T08:35:08;14.00;99.90
59067;DHT22;44854;50.838;4.438;2023-05-10T08:37:33;14.00;99.90
59067;DHT22;44854;50.838;4.438;2023-05-10T08:39:59;14.00;99.90
59067;DHT22;44854;50.838;4.438;2023-05-10T08:42:25;14.00;99.90
59067;DHT22;44854;50.838;4.438;2023-05-10T08:44:53;14.30;99.90
59067;DHT22;44854;50.838;4.438;2023-05-10T08:47:19;14.50;99.90
59067;DHT22;44854;50.838;4.438;2023-05-10T08:49:45;14.40;99.90
59067;DHT22;44854;50.838;4.438;2023-05-10T08:52:13;14.50;99.90
59067;DHT22;44854;50.838;4.438;2023-05-10T08:54:40;14.30;99.90
59067;DHT22;44854;50.838;4.438;2023-05-10T08:57:06;14.40;99.90
59067;DHT22;44854;50.838;4.438;2023-05-10T08:59:31;14.30;99.90
59067;DHT22;44854;50.838;4.438;2023-05-10T09:01:59;14.40;99.90
59067;DHT22;44854;50.838;4.438;2023-05-10T09:04:25;14.50;99.90
59067;DHT22;44854;50.838;4.438;2023-05-10T09:06:51;14.50;99.90
59067;DHT22;44854;50.838;4.438;2023-05-10T09:09:17;14.30;99.90
59067;DHT22;44854;50.838;4.438;2023-05-10T09:11:43;14.40;99.90
59067;DHT22;44854;50.838;4.438;2023-05-10T09:14:09;14.30;99.90
59067;DHT22;44854;50.838;4.438;2023-05-10T09:16:34;14.50;99.90
59067;DHT22;44854;50.838;4.438;2023-05-10T09:19:00;14.60;99.90
59067;DHT22;44854;50.838;4.438;2023-05-10T09:21:25;14.60;99.90
59067;DHT22;44854;50.838;4.438;2023-05-10T09:23:51;14.40;99.90
59067;DHT22;44854;50.838;4.438;2023-05-10T09:26:23;14.40;99.90
59067;DHT22;44854;50.838;4.438;2023-05-10T09:28:56;14.40;99.90
59067;DHT22;44854;50.838;4.438;2023-05-10T09:31:22;14.50;99.90
59067;DHT22;44854;50.838;4.438;2023-05-10T09:33:48;14.50;99.90
59067;DHT22;44854;50.838;4.438;2023-05-10T09:36:14;14.40;99.90
59067;DHT22;44854;50.838;4.438;2023-05-10T09:38:47;14.20;99.90
59067;DHT22;44854;50.838;4.438;2023-05-10T09:41:17;14.20;99.90
59067;DHT22;44854;50.838;4.438;2023-05-10T09:43:43;14.20;99.90
59067;DHT22;44854;50.838;4.438;2023-05-10T09:46:09;14.00;99.90
59067;DHT22;44854;50.838;4.438;2023-05-10T09:48:43;14.00;99.90
59067;DHT22;44854;50.838;4.438;2023-05-10T09:51:09;14.00;99.90
59067;DHT22;44854;50.838;4.438;2023-05-10T09:53:34;14.00;99.90
59067;DHT22;44854;50.838;4.438;2023-05-10T09:56:00;14.00;99.90
59067;DHT22;44854;50.838;4.438;2023-05-10T09:58:26;14.10;99.90
59067;DHT22;44854;50.838;4.438;2023-05-10T10:00:51;14.20;99.90
59067;DHT22;44854;50.838;4.438;2023-05-10T10:03:19;14.00;99.90
59067;DHT22;44854;50.838;4.438;2023-05-10T10:05:46;14.10;99.90
59067;DHT22;44854;50.838;4.438;2023-05-10T10:08:12;14.20;99.90
59067;DHT22;44854;50.838;4.438;2023-05-10T10:10:38;14.30;99.90
59067;DHT22;44854;50.838;4.438;2023-05-10T10:13:10;14.30;99.90
59067;DHT22;44854;50.838;4.438;2023-05-10T10:15:36;14.10;99.90
59067;DHT22;44854;50.838;4.438;2023-05-10T10:18:02;14.10;99.90
59067;DHT22;44854;50.838;4.438;2023-05-10T10:20:29;14.10;99.90
59067;DHT22;44854;50.838;4.438;2023-05-10T10:22:54;14.20;99.90
59067;DHT22;44854;50.838;4.438;2023-05-10T10:25:20;14.40;99.90
59067;DHT22;44854;50.838;4.438;2023-05-10T10:30:41;14.40;99.90
59067;DHT22;44854;50.838;4.438;2023-05-10T10:35:50;14.50;99.90
59067;DHT22;44854;50.838;4.438;2023-05-10T10:38:17;14.40;99.90
59067;DHT22;44854;50.838;4.438;2023-05-10T10:40:43;14.50;99.90
59067;DHT22;44854;50.838;4.438;2023-05-10T10:43:24;14.50;99.90
59067;DHT22;44854;50.838;4.438;2023-05-10T10:46:09;14.40;99.90
59067;DHT22;44854;50.838;4.438;2023-05-10T10:48:35;14.50;99.90
59067;DHT22;44854;50.838;4.438;2023-05-10T10:51:01;14.70;99.90
59067;DHT22;44854;50.838;4.438;2023-05-10T10:53:27;14.90;99.90
59067;DHT22;44854;50.838;4.438;2023-05-10T10:56:09;14.80;99.90
59067;DHT22;44854;50.838;4.438;2023-05-10T10:58:36;14.80;99.90
59067;DHT22;44854;50.838;4.438;2023-05-10T11:01:15;14.80;99.90
59067;DHT22;44854;50.838;4.438;2023-05-10T11:03:54;14.80;99.90
59067;DHT22;44854;50.838;4.438;2023-05-10T11:06:32;14.90;99.90
59067;DHT22;44854;50.838;4.438;2023-05-10T11:08:59;15.00;99.90
59067;DHT22;44854;50.838;4.438;2023-05-10T11:11:26;15.10;99.90
59067;DHT22;44854;50.838;4.438;2023-05-10T11:14:02;15.50;99.90
59067;DHT22;44854;50.838;4.438;2023-05-10T11:16:28;15.50;99.90
59067;DHT22;44854;50.838;4.438;2023-05-10T11:19:04;15.50;99.90
59067;DHT22;44854;50.838;4.438;2023-05-10T11:21:30;15.70;99.90
59067;DHT22;44854;50.838;4.438;2023-05-10T11:23:56;15.70;99.90
59067;DHT22;44854;50.838;4.438;2023-05-10T11:26:29;15.60;99.90
59067;DHT22;44854;50.838;4.438;2023-05-10T11:28:55;15.70;99.90
59067;DHT22;44854;50.838;4.438;2023-05-10T11:31:21;15.80;99.90
59067;DHT22;44854;50.838;4.438;2023-05-10T11:33:47;15.70;99.90
59067;DHT22;44854;50.838;4.438;2023-05-10T11:36:14;15.80;99.90
59067;DHT22;44854;50.838;4.438;2023-05-10T11:38:40;15.90;99.90
59067;DHT22;44854;50.838;4.438;2023-05-10T11:41:07;16.00;99.90
59067;DHT22;44854;50.838;4.438;2023-05-10T11:43:33;16.00;99.90
59067;DHT22;44854;50.838;4.438;2023-05-10T11:45:58;16.20;99.90
59067;DHT22;44854;50.838;4.438;2023-05-10T11:48:24;16.20;99.90
59067;DHT22;44854;50.838;4.438;2023-05-10T11:50:50;16.10;99.90
59067;DHT22;44854;50.838;4.438;2023-05-10T11:53:15;16.10;99.90
59067;DHT22;44854;50.838;4.438;2023-05-10T11:55:41;16.30;99.90
59067;DHT22;44854;50.838;4.438;2023-05-10T11:58:06;16.30;99.90
59067;DHT22;44854;50.838;4.438;2023-05-10T12:00:32;16.30;99.90
59067;DHT22;44854;50.838;4.438;2023-05-10T12:03:00;16.30;99.90
59067;DHT22;44854;50.838;4.438;2023-05-10T12:05:25;16.40;99.90
59067;DHT22;44854;50.838;4.438;2023-05-10T12:07:51;16.40;99.90
59067;DHT22;44854;50.838;4.438;2023-05-10T12:10:17;16.40;99.90
59067;DHT22;44854;50.838;4.438;2023-05-10T12:12:51;16.40;99.90
59067;DHT22;44854;50.838;4.438;2023-05-10T12:15:21;16.50;99.90
59067;DHT22;44854;50.838;4.438;2023-05-10T12:17:47;16.60;99.90
59067;DHT22;44854;50.838;4.438;2023-05-10T12:22:55;16.90;99.90
59067;DHT22;44854;50.838;4.438;2023-05-10T12:25:22;17.00;99.90
59067;DHT22;44854;50.838;4.438;2023-05-10T12:27:48;16.90;99.90
59067;DHT22;44854;50.838;4.438;2023-05-10T12:30:18;17.00;99.90
59067;DHT22;44854;50.838;4.438;2023-05-10T12:32:44;17.30;99.90
59067;DHT22;44854;50.838;4.438;2023-05-10T12:35:09;17.30;99.90
59067;DHT22;44854;50.838;4.438;2023-05-10T12:37:35;17.30;99.90
59067;DHT22;44854;50.838;4.438;2023-05-10T12:40:06;17.40;99.90
59067;DHT22;44854;50.838;4.438;2023-05-10T12:42:33;17.60;99.90
59067;DHT22;44854;50.838;4.438;2023-05-10T12:44:59;17.40;99.90
59067;DHT22;44854;50.838;4.438;2023-05-10T12:47:24;17.40;99.90
59067;DHT22;44854;50.838;4.438;2023-05-10T12:49:50;17.20;99.90
59067;DHT22;44854;50.838;4.438;2023-05-10T12:52:16;17.30;99.90
59067;DHT22;44854;50.838;4.438;2023-05-10T12:54:42;17.60;99.90
59067;DHT22;44854;50.838;4.438;2023-05-10T12:57:07;17.50;99.90
59067;DHT22;44854;50.838;4.438;2023-05-10T12:59:33;17.20;99.90
59067;DHT22;44854;50.838;4.438;2023-05-10T13:01:58;17.20;99.90
59067;DHT22;44854;50.838;4.438;2023-05-10T13:04:25;17.10;99.90
59067;DHT22;44854;50.838;4.438;2023-05-10T13:06:50;17.40;99.90
59067;DHT22;44854;50.838;4.438;2023-05-10T13:09:16;17.70;99.90
59067;DHT22;44854;50.838;4.438;2023-05-10T13:11:42;17.50;99.90
59067;DHT22;44854;50.838;4.438;2023-05-10T13:14:07;17.60;99.90
59067;DHT22;44854;50.838;4.438;2023-05-10T13:16:33;17.40;99.90
59067;DHT22;44854;50.838;4.438;2023-05-10T13:18:58;17.20;99.90
59067;DHT22;44854;50.838;4.438;2023-05-10T13:21:24;17.40;99.90
59067;DHT22;44854;50.838;4.438;2023-05-10T13:23:50;17.20;99.90
59067;DHT22;44854;50.838;4.438;2023-05-10T13:26:16;17.50;99.90
59067;DHT22;44854;50.838;4.438;2023-05-10T13:28:41;17.40;99.90
59067;DHT22;44854;50.838;4.438;2023-05-10T13:31:07;17.30;99.90
59067;DHT22;44854;50.838;4.438;2023-05-10T13:33:33;17.10;99.90
59067;DHT22;44854;50.838;4.438;2023-05-10T13:35:58;17.40;99.90
59067;DHT22;44854;50.838;4.438;2023-05-10T13:38:24;17.40;99.90
59067;DHT22;44854;50.838;4.438;2023-05-10T13:40:49;17.50;99.90
59067;DHT22;44854;50.838;4.438;2023-05-10T13:43:20;17.40;99.90
59067;DHT22;44854;50.838;4.438;2023-05-10T13:45:46;17.30;99.90
59067;DHT22;44854;50.838;4.438;2023-05-10T13:48:12;17.30;99.90
59067;DHT22;44854;50.838;4.438;2023-05-10T13:50:37;17.30;99.90
59067;DHT22;44854;50.838;4.438;2023-05-10T13:53:03;17.10;99.90
59067;DHT22;44854;50.838;4.438;2023-05-10T13:55:29;17.00;99.90
59067;DHT22;44854;50.838;4.438;2023-05-10T13:57:55;17.10;99.90
59067;DHT22;44854;50.838;4.438;2023-05-10T14:00:20;17.20;99.90
59067;DHT22;44854;50.838;4.438;2023-05-10T14:02:46;17.30;99.90
59067;DHT22;44854;50.838;4.438;2023-05-10T14:05:11;17.40;99.90
59067;DHT22;44854;50.838;4.438;2023-05-10T14:07:37;17.30;99.90
59067;DHT22;44854;50.838;4.438;2023-05-10T14:10:03;17.70;99.90
59067;DHT22;44854;50.838;4.438;2023-05-10T14:12:28;17.50;99.90
59067;DHT22;44854;50.838;4.438;2023-05-10T14:14:54;17.60;99.90
59067;DHT22;44854;50.838;4.438;2023-05-10T14:17:19;17.60;99.90
59067;DHT22;44854;50.838;4.438;2023-05-10T14:19:45;17.50;99.90
59067;DHT22;44854;50.838;4.438;2023-05-10T14:22:11;17.50;99.90
59067;DHT22;44854;50.838;4.438;2023-05-10T14:24:37;17.60;99.90
59067;DHT22;44854;50.838;4.438;2023-05-10T14:27:03;17.60;99.90
59067;DHT22;44854;50.838;4.438;2023-05-10T14:29:28;17.50;99.90
59067;DHT22;44854;50.838;4.438;2023-05-10T14:31:54;17.70;99.90
59067;DHT22;44854;50.838;4.438;2023-05-10T14:34:20;17.90;99.90
59067;DHT22;44854;50.838;4.438;2023-05-10T14:36:45;17.90;99.90
59067;DHT22;44854;50.838;4.438;2023-05-10T14:39:11;17.70;99.90
59067;DHT22;44854;50.838;4.438;2023-05-10T14:41:38;17.60;99.90
59067;DHT22;44854;50.838;4.438;2023-05-10T14:44:06;17.60;99.90
59067;DHT22;44854;50.838;4.438;2023-05-10T14:46:31;17.50;99.90
59067;DHT22;44854;50.838;4.438;2023-05-10T14:48:57;17.70;99.90
59067;DHT22;44854;50.838;4.438;2023-05-10T14:51:22;17.60;99.90
59067;DHT22;44854;50.838;4.438;2023-05-10T14:53:48;17.30;99.90
59067;DHT22;44854;50.838;4.438;2023-05-10T14:56:15;17.10;99.90
59067;DHT22;44854;50.838;4.438;2023-05-10T14:58:40;17.00;99.90
59067;DHT22;44854;50.838;4.438;2023-05-10T15:01:06;16.80;99.90
59067;DHT22;44854;50.838;4.438;2023-05-10T15:03:31;16.70;99.90
59067;DHT22;44854;50.838;4.438;2023-05-10T15:05:57;16.70;99.90
59067;DHT22;44854;50.838;4.438;2023-05-10T15:08:23;16.70;99.90
59067;DHT22;44854;50.838;4.438;2023-05-10T15:10:50;16.60;99.90
59067;DHT22;44854;50.838;4.438;2023-05-10T15:13:15;16.50;99.90
59067;DHT22;44854;50.838;4.438;2023-05-10T15:15:41;16.40;99.90
59067;DHT22;44854;50.838;4.438;2023-05-10T15:18:08;16.30;99.90
59067;DHT22;44854;50.838;4.438;2023-05-10T15:20:33;16.30;99.90
59067;DHT22;44854;50.838;4.438;2023-05-10T15:22:59;16.20;99.90
59067;DHT22;44854;50.838;4.438;2023-05-10T15:25:24;15.90;99.90
59067;DHT22;44854;50.838;4.438;2023-05-10T15:27:50;15.70;99.90
59067;DHT22;44854;50.838;4.438;2023-05-10T15:30:15;15.60;99.90
59067;DHT22;44854;50.838;4.438;2023-05-10T15:32:41;15.60;99.90
59067;DHT22;44854;50.838;4.438;2023-05-10T15:35:08;15.70;99.90
59067;DHT22;44854;50.838;4.438;2023-05-10T15:37:33;15.80;99.90
59067;DHT22;44854;50.838;4.438;2023-05-10T15:39:59;15.90;99.90
59067;DHT22;44854;50.838;4.438;2023-05-10T15:42:29;15.90;99.90
59067;DHT22;44854;50.838;4.438;2023-05-10T15:44:55;15.90;99.90
59067;DHT22;44854;50.838;4.438;2023-05-10T15:47:21;16.00;99.90
59067;DHT22;44854;50.838;4.438;2023-05-10T15:49:46;16.00;99.90
59067;DHT22;44854;50.838;4.438;2023-05-10T15:52:12;16.00;99.90
59067;DHT22;44854;50.838;4.438;2023-05-10T15:54:38;15.90;99.90
59067;DHT22;44854;50.838;4.438;2023-05-10T15:57:04;16.00;99.90
59067;DHT22;44854;50.838;4.438;2023-05-10T15:59:31;16.10;99.90
59067;DHT22;44854;50.838;4.438;2023-05-10T16:01:57;16.20;99.90
59067;DHT22;44854;50.838;4.438;2023-05-10T16:04:22;16.40;99.90
59067;DHT22;44854;50.838;4.438;2023-05-10T16:06:48;16.50;99.90
59067;DHT22;44854;50.838;4.438;2023-05-10T16:09:14;16.60;99.90
59067;DHT22;44854;50.838;4.438;2023-05-10T16:11:41;16.60;99.90
59067;DHT22;44854;50.838;4.438;2023-05-10T16:14:06;16.60;99.90
59067;DHT22;44854;50.838;4.438;2023-05-10T16:16:32;16.70;99.90
59067;DHT22;44854;50.838;4.438;2023-05-10T16:18:58;16.60;99.90
59067;DHT22;44854;50.838;4.438;2023-05-10T16:21:25;16.80;99.90
59067;DHT22;44854;50.838;4.438;2023-05-10T16:23:52;16.90;99.90
59067;DHT22;44854;50.838;4.438;2023-05-10T16:26:17;17.10;99.90
59067;DHT22;44854;50.838;4.438;2023-05-10T16:28:43;17.10;99.90
59067;DHT22;44854;50.838;4.438;2023-05-10T16:31:08;17.10;99.90
59067;DHT22;44854;50.838;4.438;2023-05-10T16:33:34;17.10;99.90
59067;DHT22;44854;50.838;4.438;2023-05-10T16:35:59;17.10;99.90
59067;DHT22;44854;50.838;4.438;2023-05-10T16:38:25;17.00;99.90
59067;DHT22;44854;50.838;4.438;2023-05-10T16:40:51;16.80;99.90
59067;DHT22;44854;50.838;4.438;2023-05-10T16:43:16;16.70;99.90
59067;DHT22;44854;50.838;4.438;2023-05-10T16:45:42;16.70;99.90
59067;DHT22;44854;50.838;4.438;2023-05-10T16:48:07;16.80;99.90
59067;DHT22;44854;50.838;4.438;2023-05-10T16:50:33;16.90;99.90
59067;DHT22;44854;50.838;4.438;2023-05-10T16:52:59;16.90;99.90
59067;DHT22;44854;50.838;4.438;2023-05-10T16:55:25;16.90;99.90
59067;DHT22;44854;50.838;4.438;2023-05-10T16:57:50;16.70;99.90
59067;DHT22;44854;50.838;4.438;2023-05-10T17:00:16;16.70;99.90
59067;DHT22;44854;50.838;4.438;2023-05-10T17:02:42;16.60;99.90
59067;DHT22;44854;50.838;4.438;2023-05-10T17:05:07;16.50;99.90
59067;DHT22;44854;50.838;4.438;2023-05-10T17:07:33;16.30;99.90
59067;DHT22;44854;50.838;4.438;2023-05-10T17:09:59;16.30;99.90
59067;DHT22;44854;50.838;4.438;2023-05-10T17:12:24;16.20;99.90
59067;DHT22;44854;50.838;4.438;2023-05-10T17:14:50;16.30;99.90
59067;DHT22;44854;50.838;4.438;2023-05-10T17:17:16;16.20;99.90
59067;DHT22;44854;50.838;4.438;2023-05-10T17:19:43;16.10;99.90
59067;DHT22;44854;50.838;4.438;2023-05-10T17:22:09;16.20;99.90
59067;DHT22;44854;50.838;4.438;2023-05-10T17:24:36;16.10;99.90
59067;DHT22;44854;50.838;4.438;2023-05-10T17:27:01;16.10;99.90
59067;DHT22;44854;50.838;4.438;2023-05-10T17:29:28;16.30;99.90
59067;DHT22;44854;50.838;4.438;2023-05-10T17:31:56;16.40;99.90
59067;DHT22;44854;50.838;4.438;2023-05-10T17:34:22;16.50;99.90
59067;DHT22;44854;50.838;4.438;2023-05-10T17:36:47;16.40;99.90
59067;DHT22;44854;50.838;4.438;2023-05-10T17:39:13;16.40;99.90
59067;DHT22;44854;50.838;4.438;2023-05-10T17:41:39;16.50;99.90
59067;DHT22;44854;50.838;4.438;2023-05-10T17:44:05;16.50;99.90
59067;DHT22;44854;50.838;4.438;2023-05-10T17:46:30;16.50;99.90
59067;DHT22;44854;50.838;4.438;2023-05-10T17:48:57;16.50;99.90
59067;DHT22;44854;50.838;4.438;2023-05-10T17:51:22;16.50;99.90
59067;DHT22;44854;50.838;4.438;2023-05-10T17:53:48;16.50;99.90
59067;DHT22;44854;50.838;4.438;2023-05-10T17:56:13;16.20;99.90
59067;DHT22;44854;50.838;4.438;2023-05-10T17:58:39;16.10;99.90
59067;DHT22;44854;50.838;4.438;2023-05-10T18:01:06;16.20;99.90
59067;DHT22;44854;50.838;4.438;2023-05-10T18:03:31;16.10;99.90
59067;DHT22;44854;50.838;4.438;2023-05-10T18:05:57;16.00;99.90
59067;DHT22;44854;50.838;4.438;2023-05-10T18:08:22;15.90;99.90
59067;DHT22;44854;50.838;4.438;2023-05-10T18:10:51;15.90;99.90
59067;DHT22;44854;50.838;4.438;2023-05-10T18:13:17;15.80;99.90
59067;DHT22;44854;50.838;4.438;2023-05-10T18:15:42;15.90;99.90
59067;DHT22;44854;50.838;4.438;2023-05-10T18:18:08;16.00;99.90
59067;DHT22;44854;50.838;4.438;2023-05-10T18:20:35;16.10;99.90
59067;DHT22;44854;50.838;4.438;2023-05-10T18:23:00;16.20;99.90
59067;DHT22;44854;50.838;4.438;2023-05-10T18:25:26;15.90;99.90
59067;DHT22;44854;50.838;4.438;2023-05-10T18:27:52;15.90;99.90
59067;DHT22;44854;50.838;4.438;2023-05-10T18:30:18;16.00;99.90
59067;DHT22;44854;50.838;4.438;2023-05-10T18:32:44;16.00;99.90
59067;DHT22;44854;50.838;4.438;2023-05-10T18:35:09;15.90;99.90
59067;DHT22;44854;50.838;4.438;2023-05-10T18:37:35;15.80;99.90
59067;DHT22;44854;50.838;4.438;2023-05-10T18:40:01;15.80;99.90
59067;DHT22;44854;50.838;4.438;2023-05-10T18:42:29;15.70;99.90
59067;DHT22;44854;50.838;4.438;2023-05-10T18:44:54;15.70;99.90
59067;DHT22;44854;50.838;4.438;2023-05-10T18:47:20;15.60;99.90
59067;DHT22;44854;50.838;4.438;2023-05-10T18:49:46;15.60;99.90
59067;DHT22;44854;50.838;4.438;2023-05-10T18:52:11;15.60;99.90
59067;DHT22;44854;50.838;4.438;2023-05-10T18:54:38;15.70;99.90
59067;DHT22;44854;50.838;4.438;2023-05-10T18:57:04;15.70;99.90
59067;DHT22;44854;50.838;4.438;2023-05-10T18:59:29;15.70;99.90
59067;DHT22;44854;50.838;4.438;2023-05-10T19:01:55;15.70;99.90
59067;DHT22;44854;50.838;4.438;2023-05-10T19:04:20;15.70;99.90
59067;DHT22;44854;50.838;4.438;2023-05-10T19:06:46;15.60;99.90
59067;DHT22;44854;50.838;4.438;2023-05-10T19:09:11;15.60;99.90
59067;DHT22;44854;50.838;4.438;2023-05-10T19:11:37;15.60;99.90
59067;DHT22;44854;50.838;4.438;2023-05-10T19:14:02;15.40;99.90
59067;DHT22;44854;50.838;4.438;2023-05-10T19:16:30;15.50;99.90
59067;DHT22;44854;50.838;4.438;2023-05-10T19:18:55;15.50;99.90
59067;DHT22;44854;50.838;4.438;2023-05-10T19:21:21;15.50;99.90
59067;DHT22;44854;50.838;4.438;2023-05-10T19:23:46;15.50;99.90
59067;DHT22;44854;50.838;4.438;2023-05-10T19:26:13;15.40;99.90
59067;DHT22;44854;50.838;4.438;2023-05-10T19:28:38;15.40;99.90
59067;DHT22;44854;50.838;4.438;2023-05-10T19:31:04;15.40;99.90
59067;DHT22;44854;50.838;4.438;2023-05-10T19:33:29;15.40;99.90
59067;DHT22;44854;50.838;4.438;2023-05-10T19:35:55;15.50;99.90